sensor_id;sensor_type;location;lat;lon;timestamp;P1;durP1;ratioP1;P2;durP2;ratioP2
31464;SDS011;18089;47.428;15.006;2022-08-03T00:00:12;5.45;;;4.95;;
31464;SDS011;18089;47.428;15.006;2022-08-03T00:02:45;5.65;;;5.22;;
31464;SDS011;18089;47.428;15.006;2022-08-03T00:05:17;5.28;;;4.80;;
31464;SDS011;18089;47.428;15.006;2022-08-03T00:07:49;5.50;;;5.00;;
31464;SDS011;18089;47.428;15.006;2022-08-03T00:10:21;5.85;;;5.35;;
31464;SDS011;18089;47.428;15.006;2022-08-03T00:12:53;5.15;;;4.75;;
31464;SDS011;18089;47.428;15.006;2022-08-03T00:15:27;6.18;;;5.57;;
31464;SDS011;18089;47.428;15.006;2022-08-03T00:17:59;5.70;;;5.20;;
31464;SDS011;18089;47.428;15.006;2022-08-03T00:20:31;6.30;;;5.70;;
31464;SDS011;18089;47.428;15.006;2022-08-03T00:23:03;7.75;;;5.65;;
31464;SDS011;18089;47.428;15.006;2022-08-03T00:25:36;5.75;;;4.97;;
31464;SDS011;18089;47.428;15.006;2022-08-03T00:28:08;6.43;;;5.88;;
31464;SDS011;18089;47.428;15.006;2022-08-03T00:30:41;6.20;;;5.68;;
31464;SDS011;18089;47.428;15.006;2022-08-03T00:33:14;6.10;;;5.50;;
31464;SDS011;18089;47.428;15.006;2022-08-03T00:35:46;6.03;;;5.40;;
31464;SDS011;18089;47.428;15.006;2022-08-03T00:38:18;6.40;;;5.80;;
31464;SDS011;18089;47.428;15.006;2022-08-03T00:40:50;6.32;;;5.68;;
31464;SDS011;18089;47.428;15.006;2022-08-03T00:43:24;6.90;;;6.20;;
31464;SDS011;18089;47.428;15.006;2022-08-03T00:45:58;6.90;;;6.07;;
31464;SDS011;18089;47.428;15.006;2022-08-03T00:48:30;6.32;;;5.72;;
31464;SDS011;18089;47.428;15.006;2022-08-03T00:51:02;6.07;;;5.57;;
31464;SDS011;18089;47.428;15.006;2022-08-03T00:53:34;6.38;;;5.82;;
31464;SDS011;18089;47.428;15.006;2022-08-03T00:56:06;6.43;;;5.65;;
31464;SDS011;18089;47.428;15.006;2022-08-03T00:58:38;7.05;;;5.82;;
31464;SDS011;18089;47.428;15.006;2022-08-03T01:01:12;6.15;;;5.55;;
31464;SDS011;18089;47.428;15.006;2022-08-03T01:03:44;7.10;;;6.50;;
31464;SDS011;18089;47.428;15.006;2022-08-03T01:06:16;6.63;;;6.00;;
31464;SDS011;18089;47.428;15.006;2022-08-03T01:08:51;6.28;;;5.78;;
31464;SDS011;18089;47.428;15.006;2022-08-03T01:11:30;6.63;;;6.13;;
31464;SDS011;18089;47.428;15.006;2022-08-03T01:14:05;6.25;;;5.63;;
31464;SDS011;18089;47.428;15.006;2022-08-03T01:16:45;7.05;;;6.45;;
31464;SDS011;18089;47.428;15.006;2022-08-03T01:19:27;8.05;;;6.32;;
31464;SDS011;18089;47.428;15.006;2022-08-03T01:22:21;7.18;;;6.32;;
31464;SDS011;18089;47.428;15.006;2022-08-03T01:25:09;7.97;;;7.28;;
31464;SDS011;18089;47.428;15.006;2022-08-03T01:27:50;8.07;;;6.32;;
31464;SDS011;18089;47.428;15.006;2022-08-03T01:30:27;7.72;;;6.75;;
31464;SDS011;18089;47.428;15.006;2022-08-03T01:33:01;10.55;;;6.90;;
31464;SDS011;18089;47.428;15.006;2022-08-03T01:35:35;6.50;;;6.00;;
31464;SDS011;18089;47.428;15.006;2022-08-03T01:38:13;7.25;;;6.10;;
31464;SDS011;18089;47.428;15.006;2022-08-03T01:40:47;9.70;;;6.43;;
31464;SDS011;18089;47.428;15.006;2022-08-03T01:43:22;7.13;;;6.53;;
31464;SDS011;18089;47.428;15.006;2022-08-03T01:45:59;6.88;;;6.18;;
31464;SDS011;18089;47.428;15.006;2022-08-03T01:48:32;7.28;;;6.57;;
31464;SDS011;18089;47.428;15.006;2022-08-03T01:51:07;7.68;;;6.45;;
31464;SDS011;18089;47.428;15.006;2022-08-03T01:53:39;7.57;;;6.47;;
31464;SDS011;18089;47.428;15.006;2022-08-03T01:56:12;6.80;;;6.20;;
31464;SDS011;18089;47.428;15.006;2022-08-03T01:58:46;6.95;;;6.25;;
31464;SDS011;18089;47.428;15.006;2022-08-03T02:01:20;7.25;;;6.60;;
31464;SDS011;18089;47.428;15.006;2022-08-03T02:03:53;7.57;;;6.78;;
31464;SDS011;18089;47.428;15.006;2022-08-03T02:06:25;8.07;;;6.68;;
31464;SDS011;18089;47.428;15.006;2022-08-03T02:08:58;7.15;;;6.45;;
31464;SDS011;18089;47.428;15.006;2022-08-03T02:11:30;8.90;;;7.35;;
31464;SDS011;18089;47.428;15.006;2022-08-03T02:14:04;7.28;;;6.57;;
31464;SDS011;18089;47.428;15.006;2022-08-03T02:16:38;7.40;;;6.78;;
31464;SDS011;18089;47.428;15.006;2022-08-03T02:19:10;7.13;;;6.43;;
31464;SDS011;18089;47.428;15.006;2022-08-03T02:21:43;8.85;;;6.90;;
31464;SDS011;18089;47.428;15.006;2022-08-03T02:24:16;8.20;;;7.40;;
31464;SDS011;18089;47.428;15.006;2022-08-03T02:26:48;8.27;;;7.50;;
31464;SDS011;18089;47.428;15.006;2022-08-03T02:29:22;8.52;;;7.72;;
31464;SDS011;18089;47.428;15.006;2022-08-03T02:31:57;9.85;;;7.50;;
31464;SDS011;18089;47.428;15.006;2022-08-03T02:34:33;8.63;;;7.30;;
31464;SDS011;18089;47.428;15.006;2022-08-03T02:37:05;9.45;;;7.63;;
31464;SDS011;18089;47.428;15.006;2022-08-03T02:39:39;7.55;;;6.85;;
31464;SDS011;18089;47.428;15.006;2022-08-03T02:42:12;8.13;;;7.32;;
31464;SDS011;18089;47.428;15.006;2022-08-03T02:44:45;7.93;;;7.13;;
31464;SDS011;18089;47.428;15.006;2022-08-03T02:47:20;9.23;;;7.00;;
31464;SDS011;18089;47.428;15.006;2022-08-03T02:49:53;7.30;;;6.70;;
31464;SDS011;18089;47.428;15.006;2022-08-03T02:52:27;8.00;;;7.25;;
31464;SDS011;18089;47.428;15.006;2022-08-03T02:55:01;9.82;;;6.97;;
31464;SDS011;18089;47.428;15.006;2022-08-03T02:57:34;8.05;;;7.35;;
31464;SDS011;18089;47.428;15.006;2022-08-03T03:00:08;8.07;;;7.13;;
31464;SDS011;18089;47.428;15.006;2022-08-03T03:02:42;7.93;;;7.10;;
31464;SDS011;18089;47.428;15.006;2022-08-03T03:05:14;11.35;;;7.45;;
31464;SDS011;18089;47.428;15.006;2022-08-03T03:07:47;9.77;;;6.95;;
31464;SDS011;18089;47.428;15.006;2022-08-03T03:10:20;9.30;;;7.93;;
31464;SDS011;18089;47.428;15.006;2022-08-03T03:12:54;8.95;;;8.15;;
31464;SDS011;18089;47.428;15.006;2022-08-03T03:15:27;9.13;;;7.75;;
31464;SDS011;18089;47.428;15.006;2022-08-03T03:18:02;8.55;;;7.47;;
31464;SDS011;18089;47.428;15.006;2022-08-03T03:20:35;8.60;;;7.75;;
31464;SDS011;18089;47.428;15.006;2022-08-03T03:23:08;9.95;;;7.72;;
31464;SDS011;18089;47.428;15.006;2022-08-03T03:25:40;8.73;;;7.85;;
31464;SDS011;18089;47.428;15.006;2022-08-03T03:28:12;8.27;;;7.47;;
31464;SDS011;18089;47.428;15.006;2022-08-03T03:30:45;7.97;;;7.13;;
31464;SDS011;18089;47.428;15.006;2022-08-03T03:33:18;8.48;;;7.68;;
31464;SDS011;18089;47.428;15.006;2022-08-03T03:35:51;9.48;;;8.15;;
31464;SDS011;18089;47.428;15.006;2022-08-03T03:38:23;8.38;;;7.47;;
31464;SDS011;18089;47.428;15.006;2022-08-03T03:40:55;7.72;;;7.03;;
31464;SDS011;18089;47.428;15.006;2022-08-03T03:43:27;8.32;;;7.53;;
31464;SDS011;18089;47.428;15.006;2022-08-03T03:45:59;8.02;;;7.30;;
31464;SDS011;18089;47.428;15.006;2022-08-03T03:48:33;8.32;;;7.03;;
31464;SDS011;18089;47.428;15.006;2022-08-03T03:51:05;11.55;;;6.95;;
31464;SDS011;18089;47.428;15.006;2022-08-03T03:53:37;8.63;;;7.43;;
31464;SDS011;18089;47.428;15.006;2022-08-03T03:56:10;8.65;;;7.10;;
31464;SDS011;18089;47.428;15.006;2022-08-03T03:58:42;7.43;;;6.78;;
31464;SDS011;18089;47.428;15.006;2022-08-03T04:01:14;8.18;;;7.32;;
31464;SDS011;18089;47.428;15.006;2022-08-03T04:03:47;7.63;;;6.95;;
31464;SDS011;18089;47.428;15.006;2022-08-03T04:06:19;10.48;;;7.28;;
31464;SDS011;18089;47.428;15.006;2022-08-03T04:09:08;11.38;;;7.65;;
31464;SDS011;18089;47.428;15.006;2022-08-03T04:12:06;8.95;;;7.60;;
31464;SDS011;18089;47.428;15.006;2022-08-03T04:14:39;9.70;;;7.97;;
31464;SDS011;18089;47.428;15.006;2022-08-03T04:17:11;9.75;;;8.07;;
31464;SDS011;18089;47.428;15.006;2022-08-03T04:19:46;9.05;;;7.82;;
31464;SDS011;18089;47.428;15.006;2022-08-03T04:22:21;13.43;;;8.45;;
31464;SDS011;18089;47.428;15.006;2022-08-03T04:24:57;11.23;;;8.48;;
31464;SDS011;18089;47.428;15.006;2022-08-03T04:27:32;11.68;;;7.95;;
31464;SDS011;18089;47.428;15.006;2022-08-03T04:30:07;11.98;;;8.45;;
31464;SDS011;18089;47.428;15.006;2022-08-03T04:32:39;11.13;;;7.72;;
31464;SDS011;18089;47.428;15.006;2022-08-03T04:35:16;8.40;;;7.50;;
31464;SDS011;18089;47.428;15.006;2022-08-03T04:37:49;10.38;;;7.55;;
31464;SDS011;18089;47.428;15.006;2022-08-03T04:40:24;10.85;;;8.25;;
31464;SDS011;18089;47.428;15.006;2022-08-03T04:42:58;9.02;;;8.13;;
31464;SDS011;18089;47.428;15.006;2022-08-03T04:45:30;13.45;;;7.75;;
31464;SDS011;18089;47.428;15.006;2022-08-03T04:48:03;11.43;;;8.00;;
31464;SDS011;18089;47.428;15.006;2022-08-03T04:50:37;9.63;;;7.70;;
31464;SDS011;18089;47.428;15.006;2022-08-03T04:53:09;9.52;;;7.75;;
31464;SDS011;18089;47.428;15.006;2022-08-03T04:55:41;8.25;;;7.45;;
31464;SDS011;18089;47.428;15.006;2022-08-03T04:58:13;9.25;;;7.00;;
31464;SDS011;18089;47.428;15.006;2022-08-03T05:00:45;8.18;;;6.45;;
31464;SDS011;18089;47.428;15.006;2022-08-03T05:03:20;6.35;;;5.10;;
31464;SDS011;18089;47.428;15.006;2022-08-03T05:05:54;12.93;;;6.07;;
31464;SDS011;18089;47.428;15.006;2022-08-03T05:08:27;7.85;;;5.38;;
31464;SDS011;18089;47.428;15.006;2022-08-03T05:10:59;7.57;;;5.45;;
31464;SDS011;18089;47.428;15.006;2022-08-03T05:13:31;7.45;;;5.97;;
31464;SDS011;18089;47.428;15.006;2022-08-03T05:16:03;11.10;;;6.20;;
31464;SDS011;18089;47.428;15.006;2022-08-03T05:18:36;11.85;;;6.10;;
31464;SDS011;18089;47.428;15.006;2022-08-03T05:21:09;9.23;;;5.47;;
31464;SDS011;18089;47.428;15.006;2022-08-03T05:23:43;14.65;;;9.38;;
31464;SDS011;18089;47.428;15.006;2022-08-03T05:26:15;12.85;;;6.65;;
31464;SDS011;18089;47.428;15.006;2022-08-03T05:28:47;6.90;;;5.20;;
31464;SDS011;18089;47.428;15.006;2022-08-03T05:31:19;8.48;;;4.88;;
31464;SDS011;18089;47.428;15.006;2022-08-03T05:33:51;10.23;;;5.00;;
31464;SDS011;18089;47.428;15.006;2022-08-03T05:36:25;9.00;;;4.70;;
31464;SDS011;18089;47.428;15.006;2022-08-03T05:38:57;6.22;;;4.43;;
31464;SDS011;18089;47.428;15.006;2022-08-03T05:41:29;7.75;;;4.07;;
31464;SDS011;18089;47.428;15.006;2022-08-03T05:44:01;6.88;;;4.45;;
31464;SDS011;18089;47.428;15.006;2022-08-03T05:46:34;5.97;;;4.07;;
31464;SDS011;18089;47.428;15.006;2022-08-03T05:49:06;8.32;;;4.80;;
31464;SDS011;18089;47.428;15.006;2022-08-03T05:51:39;4.93;;;3.60;;
31464;SDS011;18089;47.428;15.006;2022-08-03T05:54:11;7.53;;;5.28;;
31464;SDS011;18089;47.428;15.006;2022-08-03T05:56:43;6.63;;;4.53;;
31464;SDS011;18089;47.428;15.006;2022-08-03T05:59:15;5.80;;;5.00;;
31464;SDS011;18089;47.428;15.006;2022-08-03T06:01:47;6.15;;;4.57;;
31464;SDS011;18089;47.428;15.006;2022-08-03T06:04:19;6.47;;;5.75;;
31464;SDS011;18089;47.428;15.006;2022-08-03T06:06:53;10.35;;;5.38;;
31464;SDS011;18089;47.428;15.006;2022-08-03T06:09:25;6.10;;;4.90;;
31464;SDS011;18089;47.428;15.006;2022-08-03T06:11:58;8.50;;;4.93;;
31464;SDS011;18089;47.428;15.006;2022-08-03T06:14:30;7.68;;;5.43;;
31464;SDS011;18089;47.428;15.006;2022-08-03T06:17:02;9.30;;;6.30;;
31464;SDS011;18089;47.428;15.006;2022-08-03T06:19:34;6.40;;;5.80;;
31464;SDS011;18089;47.428;15.006;2022-08-03T06:22:08;6.75;;;5.63;;
31464;SDS011;18089;47.428;15.006;2022-08-03T06:24:40;7.03;;;4.95;;
31464;SDS011;18089;47.428;15.006;2022-08-03T06:27:13;5.55;;;5.05;;
31464;SDS011;18089;47.428;15.006;2022-08-03T06:29:45;6.07;;;5.50;;
31464;SDS011;18089;47.428;15.006;2022-08-03T06:32:17;9.00;;;5.88;;
31464;SDS011;18089;47.428;15.006;2022-08-03T06:34:51;10.57;;;5.38;;
31464;SDS011;18089;47.428;15.006;2022-08-03T06:37:25;6.20;;;5.63;;
31464;SDS011;18089;47.428;15.006;2022-08-03T06:39:57;6.60;;;5.75;;
31464;SDS011;18089;47.428;15.006;2022-08-03T06:42:29;6.85;;;5.85;;
31464;SDS011;18089;47.428;15.006;2022-08-03T06:45:02;6.25;;;5.63;;
31464;SDS011;18089;47.428;15.006;2022-08-03T06:47:35;7.72;;;5.97;;
31464;SDS011;18089;47.428;15.006;2022-08-03T06:50:07;7.20;;;6.18;;
31464;SDS011;18089;47.428;15.006;2022-08-03T06:52:42;9.75;;;6.15;;
31464;SDS011;18089;47.428;15.006;2022-08-03T06:55:14;6.45;;;5.35;;
31464;SDS011;18089;47.428;15.006;2022-08-03T06:57:47;8.43;;;5.47;;
31464;SDS011;18089;47.428;15.006;2022-08-03T07:00:19;7.80;;;5.80;;
31464;SDS011;18089;47.428;15.006;2022-08-03T07:02:51;7.57;;;5.32;;
31464;SDS011;18089;47.428;15.006;2022-08-03T07:05:23;6.97;;;6.05;;
31464;SDS011;18089;47.428;15.006;2022-08-03T07:07:56;9.13;;;5.50;;
31464;SDS011;18089;47.428;15.006;2022-08-03T07:10:30;6.03;;;5.38;;
31464;SDS011;18089;47.428;15.006;2022-08-03T07:13:02;5.63;;;5.10;;
31464;SDS011;18089;47.428;15.006;2022-08-03T07:15:34;5.28;;;4.78;;
31464;SDS011;18089;47.428;15.006;2022-08-03T07:18:07;5.75;;;4.97;;
31464;SDS011;18089;47.428;15.006;2022-08-03T07:20:39;5.45;;;4.95;;
31464;SDS011;18089;47.428;15.006;2022-08-03T07:23:12;8.75;;;4.78;;
31464;SDS011;18089;47.428;15.006;2022-08-03T07:25:44;5.57;;;4.90;;
31464;SDS011;18089;47.428;15.006;2022-08-03T07:28:16;6.03;;;5.43;;
31464;SDS011;18089;47.428;15.006;2022-08-03T07:30:48;6.40;;;4.75;;
31464;SDS011;18089;47.428;15.006;2022-08-03T07:33:20;5.95;;;5.15;;
31464;SDS011;18089;47.428;15.006;2022-08-03T07:35:53;7.03;;;4.57;;
31464;SDS011;18089;47.428;15.006;2022-08-03T07:38:26;5.05;;;4.43;;
31464;SDS011;18089;47.428;15.006;2022-08-03T07:40:59;5.25;;;4.63;;
31464;SDS011;18089;47.428;15.006;2022-08-03T07:43:31;4.85;;;4.35;;
31464;SDS011;18089;47.428;15.006;2022-08-03T07:46:03;5.43;;;4.93;;
31464;SDS011;18089;47.428;15.006;2022-08-03T07:48:35;9.88;;;5.13;;
31464;SDS011;18089;47.428;15.006;2022-08-03T07:51:07;5.40;;;4.90;;
31464;SDS011;18089;47.428;15.006;2022-08-03T07:53:40;5.07;;;4.60;;
31464;SDS011;18089;47.428;15.006;2022-08-03T07:56:12;6.22;;;5.18;;
31464;SDS011;18089;47.428;15.006;2022-08-03T07:58:45;7.22;;;5.32;;
31464;SDS011;18089;47.428;15.006;2022-08-03T08:01:17;5.60;;;5.10;;
31464;SDS011;18089;47.428;15.006;2022-08-03T08:03:49;6.10;;;4.90;;
31464;SDS011;18089;47.428;15.006;2022-08-03T08:06:21;5.90;;;5.40;;
31464;SDS011;18089;47.428;15.006;2022-08-03T08:08:55;7.50;;;5.15;;
31464;SDS011;18089;47.428;15.006;2022-08-03T08:11:30;6.88;;;4.90;;
31464;SDS011;18089;47.428;15.006;2022-08-03T08:14:02;5.45;;;4.97;;
31464;SDS011;18089;47.428;15.006;2022-08-03T08:16:36;5.50;;;5.05;;
31464;SDS011;18089;47.428;15.006;2022-08-03T08:19:08;5.85;;;5.25;;
31464;SDS011;18089;47.428;15.006;2022-08-03T08:21:40;5.78;;;5.25;;
31464;SDS011;18089;47.428;15.006;2022-08-03T08:24:14;6.43;;;5.00;;
31464;SDS011;18089;47.428;15.006;2022-08-03T08:26:46;6.05;;;5.55;;
31464;SDS011;18089;47.428;15.006;2022-08-03T08:29:18;5.80;;;5.30;;
31464;SDS011;18089;47.428;15.006;2022-08-03T08:31:52;5.93;;;5.30;;
31464;SDS011;18089;47.428;15.006;2022-08-03T08:34:24;6.40;;;5.20;;
31464;SDS011;18089;47.428;15.006;2022-08-03T08:36:56;6.60;;;5.07;;
31464;SDS011;18089;47.428;15.006;2022-08-03T08:39:30;6.15;;;5.50;;
31464;SDS011;18089;47.428;15.006;2022-08-03T08:42:02;6.88;;;5.22;;
31464;SDS011;18089;47.428;15.006;2022-08-03T08:44:34;9.27;;;5.57;;
31464;SDS011;18089;47.428;15.006;2022-08-03T08:47:06;5.70;;;5.10;;
31464;SDS011;18089;47.428;15.006;2022-08-03T08:49:38;6.60;;;5.13;;
31464;SDS011;18089;47.428;15.006;2022-08-03T08:52:11;8.60;;;6.07;;
31464;SDS011;18089;47.428;15.006;2022-08-03T08:54:45;6.45;;;5.50;;
31464;SDS011;18089;47.428;15.006;2022-08-03T08:57:17;7.30;;;5.68;;
31464;SDS011;18089;47.428;15.006;2022-08-03T08:59:50;7.07;;;5.25;;
31464;SDS011;18089;47.428;15.006;2022-08-03T09:02:28;9.45;;;5.72;;
31464;SDS011;18089;47.428;15.006;2022-08-03T09:05:00;7.85;;;6.80;;
31464;SDS011;18089;47.428;15.006;2022-08-03T09:07:32;7.70;;;6.90;;
31464;SDS011;18089;47.428;15.006;2022-08-03T09:10:07;9.55;;;7.47;;
31464;SDS011;18089;47.428;15.006;2022-08-03T09:12:41;9.27;;;7.45;;
31464;SDS011;18089;47.428;15.006;2022-08-03T09:15:17;8.27;;;7.47;;
31464;SDS011;18089;47.428;15.006;2022-08-03T09:17:52;9.02;;;7.20;;
31464;SDS011;18089;47.428;15.006;2022-08-03T09:20:25;10.13;;;6.97;;
31464;SDS011;18089;47.428;15.006;2022-08-03T09:23:01;7.43;;;6.70;;
31464;SDS011;18089;47.428;15.006;2022-08-03T09:25:36;8.57;;;5.82;;
31464;SDS011;18089;47.428;15.006;2022-08-03T09:28:09;9.27;;;5.90;;
31464;SDS011;18089;47.428;15.006;2022-08-03T09:30:43;6.05;;;5.20;;
31464;SDS011;18089;47.428;15.006;2022-08-03T09:33:16;7.57;;;5.05;;
31464;SDS011;18089;47.428;15.006;2022-08-03T09:35:48;6.38;;;5.78;;
31464;SDS011;18089;47.428;15.006;2022-08-03T09:38:21;6.97;;;5.93;;
31464;SDS011;18089;47.428;15.006;2022-08-03T09:40:57;5.53;;;4.90;;
31464;SDS011;18089;47.428;15.006;2022-08-03T09:43:29;6.40;;;5.80;;
31464;SDS011;18089;47.428;15.006;2022-08-03T09:46:16;5.18;;;4.65;;
31464;SDS011;18089;47.428;15.006;2022-08-03T09:48:48;5.15;;;3.60;;
31464;SDS011;18089;47.428;15.006;2022-08-03T09:51:23;3.92;;;3.60;;
31464;SDS011;18089;47.428;15.006;2022-08-03T09:53:55;3.30;;;2.35;;
31464;SDS011;18089;47.428;15.006;2022-08-03T09:56:42;2.40;;;2.20;;
31464;SDS011;18089;47.428;15.006;2022-08-03T09:59:21;2.58;;;2.38;;
31464;SDS011;18089;47.428;15.006;2022-08-03T10:01:54;2.75;;;2.30;;
31464;SDS011;18089;47.428;15.006;2022-08-03T10:04:27;3.00;;;2.70;;
31464;SDS011;18089;47.428;15.006;2022-08-03T10:07:03;3.72;;;2.90;;
31464;SDS011;18089;47.428;15.006;2022-08-03T10:09:36;3.20;;;2.90;;
31464;SDS011;18089;47.428;15.006;2022-08-03T10:12:11;2.58;;;2.38;;
31464;SDS011;18089;47.428;15.006;2022-08-03T10:14:43;5.10;;;2.85;;
31464;SDS011;18089;47.428;15.006;2022-08-03T10:17:15;4.47;;;2.88;;
31464;SDS011;18089;47.428;15.006;2022-08-03T10:19:48;5.05;;;3.10;;
31464;SDS011;18089;47.428;15.006;2022-08-03T10:22:20;3.35;;;3.10;;
31464;SDS011;18089;47.428;15.006;2022-08-03T10:24:54;5.95;;;2.83;;
31464;SDS011;18089;47.428;15.006;2022-08-03T10:27:30;3.45;;;3.10;;
31464;SDS011;18089;47.428;15.006;2022-08-03T10:30:05;4.35;;;3.03;;
31464;SDS011;18089;47.428;15.006;2022-08-03T10:32:39;2.20;;;2.00;;
31464;SDS011;18089;47.428;15.006;2022-08-03T10:35:12;2.22;;;2.00;;
31464;SDS011;18089;47.428;15.006;2022-08-03T10:37:47;2.28;;;1.80;;
31464;SDS011;18089;47.428;15.006;2022-08-03T10:40:23;4.85;;;2.33;;
31464;SDS011;18089;47.428;15.006;2022-08-03T10:42:58;2.35;;;2.15;;
31464;SDS011;18089;47.428;15.006;2022-08-03T10:45:40;1.80;;;1.70;;
31464;SDS011;18089;47.428;15.006;2022-08-03T10:48:13;3.33;;;1.75;;
31464;SDS011;18089;47.428;15.006;2022-08-03T10:50:45;1.48;;;1.38;;
31464;SDS011;18089;47.428;15.006;2022-08-03T10:53:32;2.28;;;1.60;;
31464;SDS011;18089;47.428;15.006;2022-08-03T10:56:06;2.25;;;2.05;;
31464;SDS011;18089;47.428;15.006;2022-08-03T11:05:39;3.38;;;2.00;;
31464;SDS011;18089;47.428;15.006;2022-08-03T11:11:23;3.03;;;2.72;;
31464;SDS011;18089;47.428;15.006;2022-08-03T11:13:58;3.05;;;2.50;;
31464;SDS011;18089;47.428;15.006;2022-08-03T11:16:36;2.53;;;2.33;;
31464;SDS011;18089;47.428;15.006;2022-08-03T11:19:10;4.82;;;2.47;;
31464;SDS011;18089;47.428;15.006;2022-08-03T11:21:54;3.63;;;3.10;;
31464;SDS011;18089;47.428;15.006;2022-08-03T11:27:29;3.85;;;2.60;;
31464;SDS011;18089;47.428;15.006;2022-08-03T11:30:04;2.13;;;1.90;;
31464;SDS011;18089;47.428;15.006;2022-08-03T11:32:55;1.50;;;1.40;;
31464;SDS011;18089;47.428;15.006;2022-08-03T11:35:28;4.15;;;2.10;;
31464;SDS011;18089;47.428;15.006;2022-08-03T11:38:10;3.38;;;2.38;;
31464;SDS011;18089;47.428;15.006;2022-08-03T11:40:43;3.40;;;3.10;;
31464;SDS011;18089;47.428;15.006;2022-08-03T11:46:16;3.28;;;2.97;;
31464;SDS011;18089;47.428;15.006;2022-08-03T11:48:51;4.35;;;2.50;;
31464;SDS011;18089;47.428;15.006;2022-08-03T11:51:28;2.97;;;2.70;;
31464;SDS011;18089;47.428;15.006;2022-08-03T11:54:01;3.63;;;2.88;;
31464;SDS011;18089;47.428;15.006;2022-08-03T11:56:44;4.40;;;2.58;;
31464;SDS011;18089;47.428;15.006;2022-08-03T11:59:17;3.28;;;2.22;;
31464;SDS011;18089;47.428;15.006;2022-08-03T12:01:49;1.60;;;1.50;;
31464;SDS011;18089;47.428;15.006;2022-08-03T12:04:22;1.88;;;1.50;;
31464;SDS011;18089;47.428;15.006;2022-08-03T12:06:57;2.50;;;2.30;;
31464;SDS011;18089;47.428;15.006;2022-08-03T12:09:30;3.30;;;2.65;;
31464;SDS011;18089;47.428;15.006;2022-08-03T12:12:05;4.90;;;2.67;;
31464;SDS011;18089;47.428;15.006;2022-08-03T12:14:37;4.15;;;2.97;;
31464;SDS011;18089;47.428;15.006;2022-08-03T12:17:09;2.42;;;2.22;;
31464;SDS011;18089;47.428;15.006;2022-08-03T12:19:42;1.55;;;1.42;;
31464;SDS011;18089;47.428;15.006;2022-08-03T12:22:15;2.75;;;2.15;;
31464;SDS011;18089;47.428;15.006;2022-08-03T12:24:47;4.30;;;2.10;;
31464;SDS011;18089;47.428;15.006;2022-08-03T12:27:24;2.70;;;2.50;;
31464;SDS011;18089;47.428;15.006;2022-08-03T12:29:59;1.77;;;1.67;;
31464;SDS011;18089;47.428;15.006;2022-08-03T12:32:31;2.03;;;1.70;;
31464;SDS011;18089;47.428;15.006;2022-08-03T12:35:05;1.95;;;1.80;;
31464;SDS011;18089;47.428;15.006;2022-08-03T12:37:38;1.67;;;1.50;;
31464;SDS011;18089;47.428;15.006;2022-08-03T12:40:10;1.80;;;1.70;;
31464;SDS011;18089;47.428;15.006;2022-08-03T12:42:45;1.88;;;1.60;;
31464;SDS011;18089;47.428;15.006;2022-08-03T12:45:17;3.28;;;1.60;;
31464;SDS011;18089;47.428;15.006;2022-08-03T12:47:51;1.83;;;1.40;;
31464;SDS011;18089;47.428;15.006;2022-08-03T12:50:28;1.55;;;1.45;;
31464;SDS011;18089;47.428;15.006;2022-08-03T12:53:02;3.08;;;1.20;;
31464;SDS011;18089;47.428;15.006;2022-08-03T12:55:35;3.60;;;1.38;;
31464;SDS011;18089;47.428;15.006;2022-08-03T12:58:07;1.50;;;1.40;;
31464;SDS011;18089;47.428;15.006;2022-08-03T13:00:41;2.08;;;1.40;;
31464;SDS011;18089;47.428;15.006;2022-08-03T13:03:25;1.85;;;1.50;;
31464;SDS011;18089;47.428;15.006;2022-08-03T13:05:59;2.72;;;1.52;;
31464;SDS011;18089;47.428;15.006;2022-08-03T13:08:31;2.50;;;2.13;;
31464;SDS011;18089;47.428;15.006;2022-08-03T13:11:16;3.25;;;2.00;;
31464;SDS011;18089;47.428;15.006;2022-08-03T13:13:49;3.15;;;1.95;;
31464;SDS011;18089;47.428;15.006;2022-08-03T13:16:21;3.42;;;1.80;;
31464;SDS011;18089;47.428;15.006;2022-08-03T13:18:53;3.38;;;2.40;;
31464;SDS011;18089;47.428;15.006;2022-08-03T13:21:27;4.03;;;1.80;;
31464;SDS011;18089;47.428;15.006;2022-08-03T13:23:59;4.63;;;3.53;;
31464;SDS011;18089;47.428;15.006;2022-08-03T13:26:31;3.13;;;2.83;;
31464;SDS011;18089;47.428;15.006;2022-08-03T13:29:03;4.63;;;2.53;;
31464;SDS011;18089;47.428;15.006;2022-08-03T13:31:35;3.47;;;2.30;;
31464;SDS011;18089;47.428;15.006;2022-08-03T13:34:07;6.50;;;2.33;;
31464;SDS011;18089;47.428;15.006;2022-08-03T13:36:41;2.80;;;2.42;;
31464;SDS011;18089;47.428;15.006;2022-08-03T13:39:13;6.53;;;2.10;;
31464;SDS011;18089;47.428;15.006;2022-08-03T13:41:45;2.63;;;1.70;;
31464;SDS011;18089;47.428;15.006;2022-08-03T13:44:17;1.98;;;1.88;;
31464;SDS011;18089;47.428;15.006;2022-08-03T13:46:49;4.55;;;3.55;;
31464;SDS011;18089;47.428;15.006;2022-08-03T13:49:21;1.67;;;1.58;;
31464;SDS011;18089;47.428;15.006;2022-08-03T13:51:55;2.17;;;1.55;;
31464;SDS011;18089;47.428;15.006;2022-08-03T13:54:27;1.92;;;1.73;;
31464;SDS011;18089;47.428;15.006;2022-08-03T13:56:59;2.05;;;1.58;;
31464;SDS011;18089;47.428;15.006;2022-08-03T13:59:31;2.25;;;2.00;;
31464;SDS011;18089;47.428;15.006;2022-08-03T14:02:03;2.13;;;1.80;;
31464;SDS011;18089;47.428;15.006;2022-08-03T14:04:36;1.63;;;1.52;;
31464;SDS011;18089;47.428;15.006;2022-08-03T14:07:09;3.95;;;2.20;;
31464;SDS011;18089;47.428;15.006;2022-08-03T14:09:43;1.92;;;1.83;;
31464;SDS011;18089;47.428;15.006;2022-08-03T14:12:15;2.22;;;2.00;;
31464;SDS011;18089;47.428;15.006;2022-08-03T14:14:48;1.98;;;1.77;;
31464;SDS011;18089;47.428;15.006;2022-08-03T14:17:20;2.63;;;1.65;;
31464;SDS011;18089;47.428;15.006;2022-08-03T14:19:52;2.60;;;2.40;;
31464;SDS011;18089;47.428;15.006;2022-08-03T14:22:25;2.40;;;1.80;;
31464;SDS011;18089;47.428;15.006;2022-08-03T14:24:57;1.70;;;1.60;;
31464;SDS011;18089;47.428;15.006;2022-08-03T14:27:29;1.77;;;1.67;;
31464;SDS011;18089;47.428;15.006;2022-08-03T14:30:01;3.15;;;1.95;;
31464;SDS011;18089;47.428;15.006;2022-08-03T14:32:34;2.28;;;1.92;;
31464;SDS011;18089;47.428;15.006;2022-08-03T14:35:06;3.00;;;2.30;;
31464;SDS011;18089;47.428;15.006;2022-08-03T14:37:40;1.65;;;1.50;;
31464;SDS011;18089;47.428;15.006;2022-08-03T14:40:12;4.13;;;1.83;;
31464;SDS011;18089;47.428;15.006;2022-08-03T14:42:44;1.70;;;1.58;;
31464;SDS011;18089;47.428;15.006;2022-08-03T14:45:16;1.77;;;1.67;;
31464;SDS011;18089;47.428;15.006;2022-08-03T14:47:48;2.85;;;2.15;;
31464;SDS011;18089;47.428;15.006;2022-08-03T14:50:21;1.67;;;1.58;;
31464;SDS011;18089;47.428;15.006;2022-08-03T14:52:55;2.28;;;1.60;;
31464;SDS011;18089;47.428;15.006;2022-08-03T14:55:27;1.80;;;1.70;;
31464;SDS011;18089;47.428;15.006;2022-08-03T14:57:59;2.28;;;2.08;;
31464;SDS011;18089;47.428;15.006;2022-08-03T15:00:34;3.08;;;1.70;;
31464;SDS011;18089;47.428;15.006;2022-08-03T15:03:06;2.22;;;1.60;;
31464;SDS011;18089;47.428;15.006;2022-08-03T15:05:38;1.88;;;1.75;;
31464;SDS011;18089;47.428;15.006;2022-08-03T15:08:12;6.72;;;6.03;;
31464;SDS011;18089;47.428;15.006;2022-08-03T15:10:44;10.25;;;8.63;;
31464;SDS011;18089;47.428;15.006;2022-08-03T15:13:17;2.45;;;1.77;;
31464;SDS011;18089;47.428;15.006;2022-08-03T15:15:49;2.45;;;1.63;;
31464;SDS011;18089;47.428;15.006;2022-08-03T15:18:22;2.05;;;1.95;;
31464;SDS011;18089;47.428;15.006;2022-08-03T15:20:54;2.70;;;1.95;;
31464;SDS011;18089;47.428;15.006;2022-08-03T15:23:27;2.10;;;1.90;;
31464;SDS011;18089;47.428;15.006;2022-08-03T15:25:59;1.77;;;1.67;;